Gale C — WDC8728 — position and weather

sailwx.info

Track history (hours):
 
Tides and Currents Weather Stations Pressure Air Temp Water Temp Dewpoint Dewpoint Depression Visibility Wind Speed Wind Dir Waves Ship Positions

Gale C

Owner: Ingram Barge Company LLC, NASHVILLE, TN. More information available from US FCC via Universal Licensing System and Coast Guard Vessel Documentation Center.

Last reported at 2018-Feb-09 14:00 UTC. Time now 2018-Feb-18 19:39 UTC.
Position N 32°14' W 090°59'.
Warning: this ship's position is 9 days out of date.

Length 56 m; draft 3 m.

Type: Towing. MMSI: 367092210.

Date/timePositionNaut miles runAvg speedWind from/ knotsBaromVisibWave heightAir tempDewpointWater temp
2018-Feb-09 14:00N 32°14' W 090°59'511.0
2018-Feb-09 13:30N 32°18' W 090°55'3 6.6
2018-Feb-09 13:00N 32°21' W 090°57'1 1.1
2018-Feb-09 12:30N 32°21' W 090°57'0 0.0
2018-Feb-09 12:00N 32°21' W 090°57'0 0.0
2018-Feb-09 11:30N 32°21' W 090°57'0 0.0
2018-Feb-09 11:00N 32°21' W 090°57'0 0.0
2018-Feb-09 10:30N 32°21' W 090°57'0 0.0
2018-Feb-09 10:00N 32°21' W 090°57'0 0.0
2018-Feb-09 09:30N 32°21' W 090°57'0 0.0
2018-Feb-09 09:00N 32°21' W 090°57'0 0.0
2018-Feb-09 08:30N 32°21' W 090°57'0 0.0
2018-Feb-09 08:00N 32°21' W 090°57'0 0.0
2018-Feb-09 07:00N 32°21' W 090°57'0 0.0
2018-Feb-09 05:30N 32°21' W 090°57'0 0.0
2018-Feb-09 04:00N 32°21' W 090°57'0 0.0
2018-Feb-09 03:30N 32°21' W 090°57'0 0.0
2018-Feb-09 03:00N 32°21' W 090°57'0 0.0
2018-Feb-09 02:30N 32°21' W 090°57'0 0.0
2018-Feb-09 02:00N 32°21' W 090°57'0 0.0
2018-Feb-09 01:30N 32°21' W 090°57'0 0.0
2018-Feb-09 01:00N 32°21' W 090°57'0 0.0
2018-Feb-09 00:30N 32°21' W 090°57'0 0.0
2018-Feb-09 00:00N 32°21' W 090°57'0 0.0
2018-Feb-08 23:30N 32°21' W 090°57'0 0.0
2018-Feb-08 23:00N 32°21' W 090°57'0 0.0
2018-Feb-08 22:00N 32°21' W 090°57'0 0.0
2018-Feb-08 21:00N 32°21' W 090°57'0 0.0
2018-Feb-08 20:30N 32°21' W 090°57'0 0.0
2018-Feb-08 20:00N 32°21' W 090°57'0 0.0
2018-Feb-08 19:30N 32°21' W 090°57'0 0.0
2018-Feb-08 18:30N 32°21' W 090°57'0 0.0
2018-Feb-08 18:00N 32°21' W 090°57'0 0.0
2018-Feb-08 17:30N 32°21' W 090°57'0 0.0
2018-Feb-08 17:00N 32°21' W 090°57'0 0.0
2018-Feb-08 16:30N 32°21' W 090°57'0 0.0
2018-Feb-08 16:00N 32°21' W 090°57'0 0.0
2018-Feb-08 15:00N 32°21' W 090°57'0 0.0
2018-Feb-08 14:30N 32°21' W 090°57'0 0.0
2018-Feb-08 14:00N 32°21' W 090°57'0 0.0
2018-Feb-08 13:30N 32°21' W 090°57'0 0.0
2018-Feb-08 13:00N 32°21' W 090°57'0 0.0
2018-Feb-08 12:30N 32°21' W 090°57'0 0.0
2018-Feb-08 12:00N 32°21' W 090°57'0 0.0
2018-Feb-08 11:30N 32°21' W 090°57'0 0.0
2018-Feb-08 11:00N 32°21' W 090°57'0 0.0
2018-Feb-08 10:30N 32°21' W 090°57'0 0.0
2018-Feb-08 10:00N 32°21' W 090°57'0 0.0
2018-Feb-08 09:30N 32°21' W 090°57'0 0.0
2018-Feb-08 09:00N 32°21' W 090°57'0 0.0
2018-Feb-08 08:30N 32°21' W 090°57'0 0.0
2018-Feb-08 08:00N 32°21' W 090°57'0 0.0
2018-Feb-08 07:30N 32°21' W 090°57'0 0.0
2018-Feb-08 07:00N 32°21' W 090°57'0 0.0
2018-Feb-08 06:30N 32°21' W 090°57'0 0.0
2018-Feb-08 06:00N 32°21' W 090°57'0 0.0
2018-Feb-08 05:30N 32°21' W 090°57'0 0.0
2018-Feb-08 05:00N 32°21' W 090°57'0 0.0
2018-Feb-08 04:30N 32°21' W 090°57'0 0.0
2018-Feb-08 04:00N 32°21' W 090°57'0 0.0
2018-Feb-08 03:00N 32°21' W 090°57'0 0.0
2018-Feb-08 01:30N 32°21' W 090°57'0 0.0
2018-Feb-08 01:00N 32°21' W 090°57'0 0.0
2018-Feb-08 00:30N 32°21' W 090°57'0 0.0
2018-Feb-08 00:00N 32°21' W 090°57'0 0.0
2018-Feb-07 23:30N 32°21' W 090°57'0 0.0
2018-Feb-07 23:00N 32°21' W 090°57'0 0.0
2018-Feb-07 22:30N 32°21' W 090°57'0 0.0
2018-Feb-07 22:00N 32°21' W 090°57'0 0.0
2018-Feb-07 21:31N 32°21' W 090°57'9 0.7
2018-Feb-07 09:30N 32°27' W 091°05'4 7.8
2018-Feb-07 08:56N 32°31' W 091°06'9 7.1
2018-Feb-07 07:40N 32°40' W 091°08'  
Track history (hours):
 
Tides and Currents Weather Stations Pressure Air Temp Water Temp Dewpoint Dewpoint Depression Visibility Wind Speed Wind Dir Waves Ship Positions

Gale C

Owner: Ingram Barge Company LLC, NASHVILLE, TN. More information available from US FCC via Universal Licensing System and Coast Guard Vessel Documentation Center.

Last reported at 2018-Feb-09 14:00 UTC. Time now 2018-Feb-18 19:39 UTC.
Position N 32°14' W 090°59'.
Warning: this ship's position is 9 days out of date.

Length 56 m; draft 3 m.

Type: Towing. MMSI: 367092210.

Date/timePositionNaut miles runAvg speedWind from/ knotsBaromVisibWave heightAir tempDewpointWater temp
2018-Feb-09 14:00N 32°14' W 090°59'511.0
2018-Feb-09 13:30N 32°18' W 090°55'3 6.6
2018-Feb-09 13:00N 32°21' W 090°57'1 1.1
2018-Feb-09 12:30N 32°21' W 090°57'0 0.0
2018-Feb-09 12:00N 32°21' W 090°57'0 0.0
2018-Feb-09 11:30N 32°21' W 090°57'0 0.0
2018-Feb-09 11:00N 32°21' W 090°57'0 0.0
2018-Feb-09 10:30N 32°21' W 090°57'0 0.0
2018-Feb-09 10:00N 32°21' W 090°57'0 0.0
2018-Feb-09 09:30N 32°21' W 090°57'0 0.0
2018-Feb-09 09:00N 32°21' W 090°57'0 0.0
2018-Feb-09 08:30N 32°21' W 090°57'0 0.0
2018-Feb-09 08:00N 32°21' W 090°57'0 0.0
2018-Feb-09 07:00N 32°21' W 090°57'0 0.0
2018-Feb-09 05:30N 32°21' W 090°57'0 0.0
2018-Feb-09 04:00N 32°21' W 090°57'0 0.0
2018-Feb-09 03:30N 32°21' W 090°57'0 0.0
2018-Feb-09 03:00N 32°21' W 090°57'0 0.0
2018-Feb-09 02:30N 32°21' W 090°57'0 0.0
2018-Feb-09 02:00N 32°21' W 090°57'0 0.0
2018-Feb-09 01:30N 32°21' W 090°57'0 0.0
2018-Feb-09 01:00N 32°21' W 090°57'0 0.0
2018-Feb-09 00:30N 32°21' W 090°57'0 0.0
2018-Feb-09 00:00N 32°21' W 090°57'0 0.0
2018-Feb-08 23:30N 32°21' W 090°57'0 0.0
2018-Feb-08 23:00N 32°21' W 090°57'0 0.0
2018-Feb-08 22:00N 32°21' W 090°57'0 0.0
2018-Feb-08 21:00N 32°21' W 090°57'0 0.0
2018-Feb-08 20:30N 32°21' W 090°57'0 0.0
2018-Feb-08 20:00N 32°21' W 090°57'0 0.0
2018-Feb-08 19:30N 32°21' W 090°57'0 0.0
2018-Feb-08 18:30N 32°21' W 090°57'0 0.0
2018-Feb-08 18:00N 32°21' W 090°57'0 0.0
2018-Feb-08 17:30N 32°21' W 090°57'0 0.0
2018-Feb-08 17:00N 32°21' W 090°57'0 0.0
2018-Feb-08 16:30N 32°21' W 090°57'0 0.0
2018-Feb-08 16:00N 32°21' W 090°57'0 0.0
2018-Feb-08 15:00N 32°21' W 090°57'0 0.0
2018-Feb-08 14:30N 32°21' W 090°57'0 0.0
2018-Feb-08 14:00N 32°21' W 090°57'0 0.0
2018-Feb-08 13:30N 32°21' W 090°57'0 0.0
2018-Feb-08 13:00N 32°21' W 090°57'0 0.0
2018-Feb-08 12:30N 32°21' W 090°57'0 0.0
2018-Feb-08 12:00N 32°21' W 090°57'0 0.0
2018-Feb-08 11:30N 32°21' W 090°57'0 0.0
2018-Feb-08 11:00N 32°21' W 090°57'0 0.0
2018-Feb-08 10:30N 32°21' W 090°57'0 0.0
2018-Feb-08 10:00N 32°21' W 090°57'0 0.0
2018-Feb-08 09:30N 32°21' W 090°57'0 0.0
2018-Feb-08 09:00N 32°21' W 090°57'0 0.0
2018-Feb-08 08:30N 32°21' W 090°57'0 0.0
2018-Feb-08 08:00N 32°21' W 090°57'0 0.0
2018-Feb-08 07:30N 32°21' W 090°57'0 0.0
2018-Feb-08 07:00N 32°21' W 090°57'0 0.0
2018-Feb-08 06:30N 32°21' W 090°57'0 0.0
2018-Feb-08 06:00N 32°21' W 090°57'0 0.0
2018-Feb-08 05:30N 32°21' W 090°57'0 0.0
2018-Feb-08 05:00N 32°21' W 090°57'0 0.0
2018-Feb-08 04:30N 32°21' W 090°57'0 0.0
2018-Feb-08 04:00N 32°21' W 090°57'0 0.0
2018-Feb-08 03:00N 32°21' W 090°57'0 0.0
2018-Feb-08 01:30N 32°21' W 090°57'0 0.0
2018-Feb-08 01:00N 32°21' W 090°57'0 0.0
2018-Feb-08 00:30N 32°21' W 090°57'0 0.0
2018-Feb-08 00:00N 32°21' W 090°57'0 0.0
2018-Feb-07 23:30N 32°21' W 090°57'0 0.0
2018-Feb-07 23:00N 32°21' W 090°57'0 0.0
2018-Feb-07 22:30N 32°21' W 090°57'0 0.0
2018-Feb-07 22:00N 32°21' W 090°57'0 0.0
2018-Feb-07 21:31N 32°21' W 090°57'9 0.7
2018-Feb-07 09:30N 32°27' W 091°05'4 7.8
2018-Feb-07 08:56N 32°31' W 091°06'9 7.1
2018-Feb-07 07:40N 32°40' W 091°08'  

Dump ship's entire track history